sensor_id;sensor_type;location;lat;lon;timestamp;pressure;altitude;pressure_sealevel;temperature;humidity
6132;BME280;3097;42.692;23.278;2023-06-14T00:00:11;94708.81;;;18.46;100.00
6132;BME280;3097;42.692;23.278;2023-06-14T00:02:39;94709.84;;;18.45;100.00
6132;BME280;3097;42.692;23.278;2023-06-14T00:05:07;94703.81;;;18.50;100.00
6132;BME280;3097;42.692;23.278;2023-06-14T00:07:39;94699.94;;;18.47;100.00
6132;BME280;3097;42.692;23.278;2023-06-14T00:10:09;94698.09;;;18.48;100.00
6132;BME280;3097;42.692;23.278;2023-06-14T00:12:34;94703.34;;;18.43;100.00
6132;BME280;3097;42.692;23.278;2023-06-14T00:15:02;94668.00;;;18.27;100.00
6132;BME280;3097;42.692;23.278;2023-06-14T00:17:27;94685.13;;;18.38;100.00
6132;BME280;3097;42.692;23.278;2023-06-14T00:19:57;94703.34;;;18.43;100.00
6132;BME280;3097;42.692;23.278;2023-06-14T00:22:23;94685.66;;;18.35;100.00
6132;BME280;3097;42.692;23.278;2023-06-14T00:24:54;94700.72;;;18.43;100.00
6132;BME280;3097;42.692;23.278;2023-06-14T00:27:19;94686.44;;;18.35;100.00
6132;BME280;3097;42.692;23.278;2023-06-14T00:29:45;94691.91;;;18.39;100.00
6132;BME280;3097;42.692;23.278;2023-06-14T00:32:10;94698.13;;;18.43;100.00
6132;BME280;3097;42.692;23.278;2023-06-14T00:34:36;94685.66;;;18.35;100.00
6132;BME280;3097;42.692;23.278;2023-06-14T00:37:01;94689.56;;;18.37;100.00
6132;BME280;3097;42.692;23.278;2023-06-14T00:39:27;94689.56;;;18.37;100.00
6132;BME280;3097;42.692;23.278;2023-06-14T00:41:53;94689.63;;;18.32;100.00
6132;BME280;3097;42.692;23.278;2023-06-14T00:44:18;94681.81;;;18.27;100.00
6132;BME280;3097;42.692;23.278;2023-06-14T00:46:47;94686.50;;;18.30;100.00
6132;BME280;3097;42.692;23.278;2023-06-14T00:49:16;94688.28;;;18.35;100.00
6132;BME280;3097;42.692;23.278;2023-06-14T00:51:42;94684.59;;;18.36;100.00
6132;BME280;3097;42.692;23.278;2023-06-14T00:54:08;94668.31;;;18.20;100.00
6132;BME280;3097;42.692;23.278;2023-06-14T00:56:36;94686.75;;;18.29;100.00
6132;BME280;3097;42.692;23.278;2023-06-14T00:59:02;94684.13;;;18.34;100.00
6132;BME280;3097;42.692;23.278;2023-06-14T01:01:28;94683.56;;;18.37;100.00
6132;BME280;3097;42.692;23.278;2023-06-14T01:03:57;94681.00;;;18.32;100.00
6132;BME280;3097;42.692;23.278;2023-06-14T01:06:30;94681.78;;;18.32;100.00
6132;BME280;3097;42.692;23.278;2023-06-14T01:09:06;94675.28;;;18.30;100.00
6132;BME280;3097;42.692;23.278;2023-06-14T01:14:30;94680.50;;;18.30;100.00
6132;BME280;3097;42.692;23.278;2023-06-14T01:16:57;94677.38;;;18.28;100.00
6132;BME280;3097;42.692;23.278;2023-06-14T01:19:25;94680.28;;;18.26;100.00
6132;BME280;3097;42.692;23.278;2023-06-14T01:21:55;94680.53;;;18.25;100.00
6132;BME280;3097;42.692;23.278;2023-06-14T01:24:20;94673.97;;;18.27;100.00
6132;BME280;3097;42.692;23.278;2023-06-14T01:26:52;94684.66;;;18.31;100.00
6132;BME280;3097;42.692;23.278;2023-06-14T01:29:22;94675.53;;;18.28;100.00
6132;BME280;3097;42.692;23.278;2023-06-14T01:31:49;94674.50;;;18.29;100.00
6132;BME280;3097;42.692;23.278;2023-06-14T01:34:15;94671.38;;;18.27;100.00
6132;BME280;3097;42.692;23.278;2023-06-14T01:36:41;94665.41;;;18.27;100.00
6132;BME280;3097;42.692;23.278;2023-06-14T01:39:09;94668.28;;;18.25;100.00
6132;BME280;3097;42.692;23.278;2023-06-14T01:41:35;94680.28;;;18.26;100.00
6132;BME280;3097;42.692;23.278;2023-06-14T01:44:02;94676.88;;;18.26;100.00
6132;BME280;3097;42.692;23.278;2023-06-14T01:46:28;94682.88;;;18.26;100.00
6132;BME280;3097;42.692;23.278;2023-06-14T01:48:54;94670.63;;;18.22;100.00
6132;BME280;3097;42.692;23.278;2023-06-14T01:51:19;94678.44;;;18.27;100.00
6132;BME280;3097;42.692;23.278;2023-06-14T01:53:45;94663.84;;;18.21;100.00
6132;BME280;3097;42.692;23.278;2023-06-14T01:56:12;94686.22;;;18.32;100.00
6132;BME280;3097;42.692;23.278;2023-06-14T01:58:37;94684.13;;;18.34;100.00
6132;BME280;3097;42.692;23.278;2023-06-14T02:01:02;94692.25;;;18.27;100.00
6132;BME280;3097;42.692;23.278;2023-06-14T02:03:28;94692.53;;;18.26;100.00
6132;BME280;3097;42.692;23.278;2023-06-14T02:05:53;94694.13;;;18.22;100.00
6132;BME280;3097;42.692;23.278;2023-06-14T02:08:20;94689.41;;;18.24;100.00
6132;BME280;3097;42.692;23.278;2023-06-14T02:10:46;94699.03;;;18.28;100.00
6132;BME280;3097;42.692;23.278;2023-06-14T02:13:11;94707.16;;;18.27;100.00
6132;BME280;3097;42.692;23.278;2023-06-14T02:15:37;94709.75;;;18.27;100.00
6132;BME280;3097;42.692;23.278;2023-06-14T02:18:03;94706.94;;;18.18;100.00
6132;BME280;3097;42.692;23.278;2023-06-14T02:20:29;94712.47;;;18.11;100.00
6132;BME280;3097;42.692;23.278;2023-06-14T02:22:54;94701.53;;;18.04;100.00
6132;BME280;3097;42.692;23.278;2023-06-14T02:25:20;94696.09;;;18.01;100.00
6132;BME280;3097;42.692;23.278;2023-06-14T02:27:45;94697.88;;;18.05;100.00
6132;BME280;3097;42.692;23.278;2023-06-14T02:30:11;94715.03;;;18.16;100.00
6132;BME280;3097;42.692;23.278;2023-06-14T02:32:37;94707.53;;;18.10;100.00
6132;BME280;3097;42.692;23.278;2023-06-14T02:35:03;94711.72;;;18.06;100.00
6132;BME280;3097;42.692;23.278;2023-06-14T02:37:29;94697.16;;;18.00;100.00
6132;BME280;3097;42.692;23.278;2023-06-14T02:39:55;94720.00;;;18.13;100.00
6132;BME280;3097;42.692;23.278;2023-06-14T02:42:21;94702.31;;;18.05;100.00
6132;BME280;3097;42.692;23.278;2023-06-14T02:44:47;94700.00;;;18.03;100.00
6132;BME280;3097;42.692;23.278;2023-06-14T02:47:17;94703.63;;;18.07;100.00
6132;BME280;3097;42.692;23.278;2023-06-14T02:49:43;94701.31;;;18.01;100.00
6132;BME280;3097;42.692;23.278;2023-06-14T02:52:08;94698.19;;;17.99;100.00
6132;BME280;3097;42.692;23.278;2023-06-14T02:54:34;94705.22;;;18.03;100.00
6132;BME280;3097;42.692;23.278;2023-06-14T02:57:00;94702.31;;;18.05;100.00
6132;BME280;3097;42.692;23.278;2023-06-14T02:59:25;94714.88;;;18.03;100.00
6132;BME280;3097;42.692;23.278;2023-06-14T03:01:51;94711.22;;;18.04;100.00
6132;BME280;3097;42.692;23.278;2023-06-14T03:04:16;94709.09;;;18.11;100.00
6132;BME280;3097;42.692;23.278;2023-06-14T03:06:42;94708.56;;;18.09;100.00
6132;BME280;3097;42.692;23.278;2023-06-14T03:09:09;94717.44;;;18.08;100.00
6132;BME280;3097;42.692;23.278;2023-06-14T03:11:36;94713.28;;;18.07;100.00
6132;BME280;3097;42.692;23.278;2023-06-14T03:14:01;94722.91;;;18.11;100.00
6132;BME280;3097;42.692;23.278;2023-06-14T03:16:29;94720.31;;;18.06;100.00
6132;BME280;3097;42.692;23.278;2023-06-14T03:18:55;94692.81;;;17.85;100.00
6132;BME280;3097;42.692;23.278;2023-06-14T03:21:20;94725.53;;;18.06;100.00
6132;BME280;3097;42.692;23.278;2023-06-14T03:23:47;94733.34;;;18.11;100.00
6132;BME280;3097;42.692;23.278;2023-06-14T03:26:13;94730.75;;;18.11;100.00
6132;BME280;3097;42.692;23.278;2023-06-14T03:28:40;94718.75;;;18.05;100.00
6132;BME280;3097;42.692;23.278;2023-06-14T03:31:06;94730.44;;;18.13;100.00
6132;BME280;3097;42.692;23.278;2023-06-14T03:33:32;94732.00;;;18.14;100.00
6132;BME280;3097;42.692;23.278;2023-06-14T03:35:57;94737.22;;;18.19;100.00
6132;BME280;3097;42.692;23.278;2023-06-14T03:38:23;94721.88;;;18.07;100.00
6132;BME280;3097;42.692;23.278;2023-06-14T03:40:48;94737.47;;;18.17;100.00
6132;BME280;3097;42.692;23.278;2023-06-14T03:43:14;94735.41;;;18.14;100.00
6132;BME280;3097;42.692;23.278;2023-06-14T03:45:39;94729.97;;;18.11;100.00
6132;BME280;3097;42.692;23.278;2023-06-14T03:48:05;94736.19;;;18.15;100.00
6132;BME280;3097;42.692;23.278;2023-06-14T03:50:32;94732.53;;;18.16;100.00
6132;BME280;3097;42.692;23.278;2023-06-14T03:52:58;94732.47;;;18.21;100.00
6132;BME280;3097;42.692;23.278;2023-06-14T03:55:23;94739.50;;;18.26;100.00
6132;BME280;3097;42.692;23.278;2023-06-14T03:57:51;94727.78;;;18.23;100.00
6132;BME280;3097;42.692;23.278;2023-06-14T04:00:17;94726.94;;;18.28;100.00
6132;BME280;3097;42.692;23.278;2023-06-14T04:02:43;94729.56;;;18.28;100.00
6132;BME280;3097;42.692;23.278;2023-06-14T04:05:10;94746.16;;;18.42;100.00
6132;BME280;3097;42.692;23.278;2023-06-14T04:07:36;94739.88;;;18.43;100.00
6132;BME280;3097;42.692;23.278;2023-06-14T04:10:11;94744.56;;;18.46;100.00
6132;BME280;3097;42.692;23.278;2023-06-14T04:12:38;94720.66;;;18.34;100.00
6132;BME280;3097;42.692;23.278;2023-06-14T04:15:03;94734.13;;;18.46;100.00
6132;BME280;3097;42.692;23.278;2023-06-14T04:17:32;94742.41;;;18.58;100.00
6132;BME280;3097;42.692;23.278;2023-06-14T04:20:01;94744.09;;;18.73;100.00
6132;BME280;3097;42.692;23.278;2023-06-14T04:22:29;94732.66;;;18.98;100.00
6132;BME280;3097;42.692;23.278;2023-06-14T04:24:55;94741.56;;;19.20;100.00
6132;BME280;3097;42.692;23.278;2023-06-14T04:27:26;94736.59;;;19.43;100.00
6132;BME280;3097;42.692;23.278;2023-06-14T04:29:55;94739.56;;;19.79;100.00
6132;BME280;3097;42.692;23.278;2023-06-14T04:32:27;94745.53;;;20.40;100.00
6132;BME280;3097;42.692;23.278;2023-06-14T04:34:55;94745.56;;;21.19;100.00
6132;BME280;3097;42.692;23.278;2023-06-14T04:37:21;94750.16;;;21.90;95.26
6132;BME280;3097;42.692;23.278;2023-06-14T04:39:48;94748.75;;;22.20;91.80
6132;BME280;3097;42.692;23.278;2023-06-14T04:42:14;94745.25;;;22.25;89.26
6132;BME280;3097;42.692;23.278;2023-06-14T04:44:43;94744.59;;;22.64;88.75
6132;BME280;3097;42.692;23.278;2023-06-14T04:47:09;94743.53;;;23.18;85.83
6132;BME280;3097;42.692;23.278;2023-06-14T04:49:35;94752.25;;;23.84;80.14
6132;BME280;3097;42.692;23.278;2023-06-14T04:52:00;94755.59;;;24.41;78.53
6132;BME280;3097;42.692;23.278;2023-06-14T04:54:27;94757.63;;;24.36;78.33
6132;BME280;3097;42.692;23.278;2023-06-14T04:56:53;94754.66;;;24.54;79.94
6132;BME280;3097;42.692;23.278;2023-06-14T04:59:21;94747.25;;;25.12;77.32
6132;BME280;3097;42.692;23.278;2023-06-14T05:01:50;94763.09;;;25.88;75.05
6132;BME280;3097;42.692;23.278;2023-06-14T05:04:17;94768.44;;;26.29;72.47
6132;BME280;3097;42.692;23.278;2023-06-14T05:06:43;94762.69;;;26.06;70.15
6132;BME280;3097;42.692;23.278;2023-06-14T05:09:11;94773.81;;;25.53;72.59
6132;BME280;3097;42.692;23.278;2023-06-14T05:11:36;94771.66;;;25.00;74.58
6132;BME280;3097;42.692;23.278;2023-06-14T05:14:02;94773.88;;;24.46;74.25
6132;BME280;3097;42.692;23.278;2023-06-14T05:16:27;94765.63;;;24.13;75.46
6132;BME280;3097;42.692;23.278;2023-06-14T05:18:54;94769.69;;;24.19;77.12
6132;BME280;3097;42.692;23.278;2023-06-14T05:21:20;94772.63;;;24.69;77.03
6132;BME280;3097;42.692;23.278;2023-06-14T05:23:45;94774.41;;;25.21;75.38
6132;BME280;3097;42.692;23.278;2023-06-14T05:26:11;94783.78;;;25.48;74.58
6132;BME280;3097;42.692;23.278;2023-06-14T05:28:36;94789.97;;;25.05;75.62
6132;BME280;3097;42.692;23.278;2023-06-14T05:31:02;94790.78;;;24.45;77.79
6132;BME280;3097;42.692;23.278;2023-06-14T05:33:27;94787.91;;;23.90;78.48
6132;BME280;3097;42.692;23.278;2023-06-14T05:35:53;94795.84;;;23.50;81.17
6132;BME280;3097;42.692;23.278;2023-06-14T05:38:19;94797.16;;;23.08;84.46
6132;BME280;3097;42.692;23.278;2023-06-14T05:40:44;94787.56;;;22.82;85.10
6132;BME280;3097;42.692;23.278;2023-06-14T05:43:10;94783.00;;;22.51;84.34
6132;BME280;3097;42.692;23.278;2023-06-14T05:45:35;94790.16;;;22.37;86.50
6132;BME280;3097;42.692;23.278;2023-06-14T05:48:01;94796.94;;;22.16;88.07
6132;BME280;3097;42.692;23.278;2023-06-14T05:50:26;94805.19;;;21.95;88.46
6132;BME280;3097;42.692;23.278;2023-06-14T05:52:53;94799.38;;;21.85;88.91
6132;BME280;3097;42.692;23.278;2023-06-14T05:55:19;94796.84;;;21.66;90.57
6132;BME280;3097;42.692;23.278;2023-06-14T05:57:45;94794.34;;;21.47;89.86
6132;BME280;3097;42.692;23.278;2023-06-14T06:00:11;94803.25;;;21.33;89.33
6132;BME280;3097;42.692;23.278;2023-06-14T06:02:40;94737.34;;;20.61;91.32
6132;BME280;3097;42.692;23.278;2023-06-14T06:05:06;94798.69;;;20.92;92.54
6132;BME280;3097;42.692;23.278;2023-06-14T06:07:31;94800.19;;;20.79;93.57
6132;BME280;3097;42.692;23.278;2023-06-14T06:09:57;94808.34;;;20.78;95.40
6132;BME280;3097;42.692;23.278;2023-06-14T06:12:22;94807.44;;;20.69;95.17
6132;BME280;3097;42.692;23.278;2023-06-14T06:14:48;94805.31;;;20.71;95.49
6132;BME280;3097;42.692;23.278;2023-06-14T06:17:13;94808.06;;;20.79;97.13
6132;BME280;3097;42.692;23.278;2023-06-14T06:19:39;94795.34;;;20.73;97.11
6132;BME280;3097;42.692;23.278;2023-06-14T06:22:05;94808.25;;;20.83;95.30
6132;BME280;3097;42.692;23.278;2023-06-14T06:24:31;94812.66;;;20.88;94.85
6132;BME280;3097;42.692;23.278;2023-06-14T06:26:57;94811.88;;;20.87;95.55
6132;BME280;3097;42.692;23.278;2023-06-14T06:29:22;94801.66;;;20.85;95.13
6132;BME280;3097;42.692;23.278;2023-06-14T06:31:48;94807.59;;;20.91;96.82
6132;BME280;3097;42.692;23.278;2023-06-14T06:34:13;94801.94;;;20.84;96.32
6132;BME280;3097;42.692;23.278;2023-06-14T06:36:38;94815.47;;;20.91;96.20
6132;BME280;3097;42.692;23.278;2023-06-14T06:39:04;94819.81;;;20.82;93.38
6132;BME280;3097;42.692;23.278;2023-06-14T06:41:35;94799.19;;;20.75;94.92
6132;BME280;3097;42.692;23.278;2023-06-14T06:44:02;94807.22;;;20.98;96.98
6132;BME280;3097;42.692;23.278;2023-06-14T06:46:28;94789.19;;;20.96;96.84
6132;BME280;3097;42.692;23.278;2023-06-14T06:48:53;94807.22;;;21.16;98.40
6132;BME280;3097;42.692;23.278;2023-06-14T06:51:19;94811.78;;;21.24;94.68
6132;BME280;3097;42.692;23.278;2023-06-14T06:53:54;94817.06;;;21.38;93.36
6132;BME280;3097;42.692;23.278;2023-06-14T06:56:20;94814.53;;;21.74;93.32
6132;BME280;3097;42.692;23.278;2023-06-14T06:58:51;94820.41;;;22.34;93.61
6132;BME280;3097;42.692;23.278;2023-06-14T07:01:17;94812.63;;;23.10;95.25
6132;BME280;3097;42.692;23.278;2023-06-14T07:03:45;94795.03;;;23.89;92.56
6132;BME280;3097;42.692;23.278;2023-06-14T07:06:11;94819.47;;;24.73;85.60
6132;BME280;3097;42.692;23.278;2023-06-14T07:08:36;94818.84;;;24.76;78.07
6132;BME280;3097;42.692;23.278;2023-06-14T07:11:04;94817.13;;;24.71;77.90
6132;BME280;3097;42.692;23.278;2023-06-14T07:13:30;94829.06;;;24.86;77.31
6132;BME280;3097;42.692;23.278;2023-06-14T07:15:57;94808.91;;;24.55;77.59
6132;BME280;3097;42.692;23.278;2023-06-14T07:18:23;94817.63;;;24.73;79.18
6132;BME280;3097;42.692;23.278;2023-06-14T07:20:48;94808.00;;;24.94;78.10
6132;BME280;3097;42.692;23.278;2023-06-14T07:23:14;94810.78;;;25.53;82.38
6132;BME280;3097;42.692;23.278;2023-06-14T07:25:40;94817.38;;;26.06;75.11
6132;BME280;3097;42.692;23.278;2023-06-14T07:28:05;94810.09;;;26.03;71.05
6132;BME280;3097;42.692;23.278;2023-06-14T07:30:30;94787.19;;;25.48;69.40
6132;BME280;3097;42.692;23.278;2023-06-14T07:32:56;94816.69;;;25.50;71.99
6132;BME280;3097;42.692;23.278;2023-06-14T07:35:22;94800.47;;;25.22;71.23
6132;BME280;3097;42.692;23.278;2023-06-14T07:37:47;94813.09;;;24.99;73.18
6132;BME280;3097;42.692;23.278;2023-06-14T07:40:13;94811.56;;;24.64;70.92
6132;BME280;3097;42.692;23.278;2023-06-14T07:42:39;94814.66;;;24.40;74.58
6132;BME280;3097;42.692;23.278;2023-06-14T07:45:05;94813.34;;;24.03;74.93
6132;BME280;3097;42.692;23.278;2023-06-14T07:47:32;94809.41;;;23.83;76.46
6132;BME280;3097;42.692;23.278;2023-06-14T07:49:57;94821.34;;;23.81;76.63
6132;BME280;3097;42.692;23.278;2023-06-14T07:52:23;94823.59;;;23.65;77.00
6132;BME280;3097;42.692;23.278;2023-06-14T07:54:48;94825.78;;;23.72;78.11
6132;BME280;3097;42.692;23.278;2023-06-14T07:57:14;94812.63;;;23.72;76.66
6132;BME280;3097;42.692;23.278;2023-06-14T07:59:39;94833.25;;;23.78;75.00
6132;BME280;3097;42.692;23.278;2023-06-14T08:02:05;94827.38;;;23.81;76.53
6132;BME280;3097;42.692;23.278;2023-06-14T08:04:31;94823.56;;;24.13;80.69
6132;BME280;3097;42.692;23.278;2023-06-14T08:06:57;94823.19;;;24.63;82.23
6132;BME280;3097;42.692;23.278;2023-06-14T08:09:22;94837.78;;;24.95;77.82
6132;BME280;3097;42.692;23.278;2023-06-14T08:11:48;94845.66;;;25.03;73.85
6132;BME280;3097;42.692;23.278;2023-06-14T08:14:13;94851.28;;;24.93;72.24
6132;BME280;3097;42.692;23.278;2023-06-14T08:16:39;94836.06;;;24.73;73.11
6132;BME280;3097;42.692;23.278;2023-06-14T08:19:04;94845.34;;;24.45;73.38
6132;BME280;3097;42.692;23.278;2023-06-14T08:21:30;94850.00;;;24.48;73.67
6132;BME280;3097;42.692;23.278;2023-06-14T08:23:58;94846.75;;;24.68;76.48
6132;BME280;3097;42.692;23.278;2023-06-14T08:26:24;94849.13;;;24.95;78.73
6132;BME280;3097;42.692;23.278;2023-06-14T08:28:54;94841.31;;;25.08;72.04
6132;BME280;3097;42.692;23.278;2023-06-14T08:31:20;94844.09;;;25.11;72.41
6132;BME280;3097;42.692;23.278;2023-06-14T08:33:45;94841.94;;;25.04;70.32
6132;BME280;3097;42.692;23.278;2023-06-14T08:36:11;94849.72;;;25.01;71.49
6132;BME280;3097;42.692;23.278;2023-06-14T08:38:37;94844.44;;;25.10;75.50
6132;BME280;3097;42.692;23.278;2023-06-14T08:41:04;94837.13;;;25.15;74.63
6132;BME280;3097;42.692;23.278;2023-06-14T08:43:31;94842.84;;;25.26;72.11
6132;BME280;3097;42.692;23.278;2023-06-14T08:46:03;94843.16;;;25.24;71.70
6132;BME280;3097;42.692;23.278;2023-06-14T08:48:29;94833.28;;;25.51;73.38
6132;BME280;3097;42.692;23.278;2023-06-14T08:51:00;94830.28;;;25.78;74.81
6132;BME280;3097;42.692;23.278;2023-06-14T08:53:32;94831.41;;;25.68;70.00
6132;BME280;3097;42.692;23.278;2023-06-14T08:56:00;94844.94;;;25.50;68.11
6132;BME280;3097;42.692;23.278;2023-06-14T08:58:28;94837.97;;;25.45;71.25
6132;BME280;3097;42.692;23.278;2023-06-14T09:00:57;94835.78;;;25.56;70.51
6132;BME280;3097;42.692;23.278;2023-06-14T09:03:24;94829.22;;;25.70;72.51
6132;BME280;3097;42.692;23.278;2023-06-14T09:05:54;94838.25;;;25.52;69.34
6132;BME280;3097;42.692;23.278;2023-06-14T09:08:19;94834.38;;;25.50;70.10
6132;BME280;3097;42.692;23.278;2023-06-14T09:10:47;94834.47;;;25.24;69.21
6132;BME280;3097;42.692;23.278;2023-06-14T09:13:12;94823.66;;;24.99;69.47
6132;BME280;3097;42.692;23.278;2023-06-14T09:15:38;94821.91;;;25.03;73.48
6132;BME280;3097;42.692;23.278;2023-06-14T09:18:03;94816.03;;;25.15;73.05
6132;BME280;3097;42.692;23.278;2023-06-14T09:20:30;94814.44;;;25.31;73.20
6132;BME280;3097;42.692;23.278;2023-06-14T09:22:55;94816.41;;;25.43;70.25
6132;BME280;3097;42.692;23.278;2023-06-14T09:25:21;94816.69;;;25.50;70.13
6132;BME280;3097;42.692;23.278;2023-06-14T09:27:48;94820.69;;;25.56;71.26
6132;BME280;3097;42.692;23.278;2023-06-14T09:30:13;94815.75;;;25.63;70.58
6132;BME280;3097;42.692;23.278;2023-06-14T09:32:39;94821.91;;;25.76;72.02
6132;BME280;3097;42.692;23.278;2023-06-14T09:35:09;94814.63;;;25.64;67.38
6132;BME280;3097;42.692;23.278;2023-06-14T09:37:35;94818.53;;;25.50;68.72
6132;BME280;3097;42.692;23.278;2023-06-14T09:40:03;94819.63;;;25.49;69.09
6132;BME280;3097;42.692;23.278;2023-06-14T09:42:28;94819.34;;;25.41;69.44
6132;BME280;3097;42.692;23.278;2023-06-14T09:44:56;94815.34;;;25.27;70.97
6132;BME280;3097;42.692;23.278;2023-06-14T09:47:22;94811.03;;;25.22;70.38
6132;BME280;3097;42.692;23.278;2023-06-14T09:49:51;94808.09;;;25.24;71.45
6132;BME280;3097;42.692;23.278;2023-06-14T09:52:20;94806.66;;;25.26;73.29
6132;BME280;3097;42.692;23.278;2023-06-14T09:54:47;94800.75;;;25.29;70.46
6132;BME280;3097;42.692;23.278;2023-06-14T09:57:20;94801.72;;;25.25;71.72
6132;BME280;3097;42.692;23.278;2023-06-14T09:59:47;94798.44;;;25.28;73.29
6132;BME280;3097;42.692;23.278;2023-06-14T10:02:36;94792.06;;;25.29;69.11
6132;BME280;3097;42.692;23.278;2023-06-14T10:05:07;94798.44;;;25.28;68.22
6132;BME280;3097;42.692;23.278;2023-06-14T10:07:51;94795.09;;;25.10;70.02
6132;BME280;3097;42.692;23.278;2023-06-14T10:10:17;94773.22;;;25.10;71.24
6132;BME280;3097;42.692;23.278;2023-06-14T10:12:43;94786.00;;;25.28;70.41
6132;BME280;3097;42.692;23.278;2023-06-14T10:15:10;94776.41;;;25.32;68.40
6132;BME280;3097;42.692;23.278;2023-06-14T10:17:52;94788.56;;;25.54;71.18
6132;BME280;3097;42.692;23.278;2023-06-14T10:20:37;94784.22;;;25.58;68.66
6132;BME280;3097;42.692;23.278;2023-06-14T10:23:37;94773.63;;;25.67;69.04
6132;BME280;3097;42.692;23.278;2023-06-14T10:26:05;94775.13;;;25.76;69.85
6132;BME280;3097;42.692;23.278;2023-06-14T10:28:31;94773.84;;;25.82;68.99
6132;BME280;3097;42.692;23.278;2023-06-14T10:31:07;94780.72;;;25.75;67.90
6132;BME280;3097;42.692;23.278;2023-06-14T10:33:34;94774.66;;;25.74;69.77
6132;BME280;3097;42.692;23.278;2023-06-14T10:38:36;94763.59;;;25.43;67.26
6132;BME280;3097;42.692;23.278;2023-06-14T10:41:06;94762.72;;;25.30;69.33
6132;BME280;3097;42.692;23.278;2023-06-14T10:43:32;94750.03;;;25.24;69.38
6132;BME280;3097;42.692;23.278;2023-06-14T10:48:44;94762.97;;;25.46;65.55
6132;BME280;3097;42.692;23.278;2023-06-14T10:51:17;94764.31;;;25.23;68.10
6132;BME280;3097;42.692;23.278;2023-06-14T10:53:47;94756.09;;;25.24;68.17
6132;BME280;3097;42.692;23.278;2023-06-14T10:56:26;94760.88;;;25.31;68.48
6132;BME280;3097;42.692;23.278;2023-06-14T10:58:52;94754.59;;;25.44;65.83
6132;BME280;3097;42.692;23.278;2023-06-14T11:01:29;94742.31;;;25.48;66.24
6132;BME280;3097;42.692;23.278;2023-06-14T11:03:57;94742.59;;;25.55;65.93
6132;BME280;3097;42.692;23.278;2023-06-14T11:06:45;94725.31;;;25.66;67.86
6132;BME280;3097;42.692;23.278;2023-06-14T11:12:21;94742.22;;;25.36;66.56
6132;BME280;3097;42.692;23.278;2023-06-14T11:14:48;94728.34;;;25.18;67.83
6132;BME280;3097;42.692;23.278;2023-06-14T11:17:14;94727.06;;;25.24;68.96
6132;BME280;3097;42.692;23.278;2023-06-14T11:19:39;94733.81;;;25.34;68.30
6132;BME280;3097;42.692;23.278;2023-06-14T11:22:05;94730.72;;;25.40;67.34
6132;BME280;3097;42.692;23.278;2023-06-14T11:24:32;94721.25;;;25.39;68.11
6132;BME280;3097;42.692;23.278;2023-06-14T11:26:58;94724.66;;;25.40;65.92
6132;BME280;3097;42.692;23.278;2023-06-14T11:29:23;94730.13;;;25.26;66.52
6132;BME280;3097;42.692;23.278;2023-06-14T11:31:49;94733.81;;;25.34;66.04
6132;BME280;3097;42.692;23.278;2023-06-14T11:34:15;94732.66;;;25.23;67.35
6132;BME280;3097;42.692;23.278;2023-06-14T11:36:41;94731.91;;;25.14;67.45
6132;BME280;3097;42.692;23.278;2023-06-14T11:39:08;94729.28;;;25.05;66.28
6132;BME280;3097;42.692;23.278;2023-06-14T11:41:44;94721.72;;;24.95;68.06
6132;BME280;3097;42.692;23.278;2023-06-14T11:44:10;94713.78;;;25.03;67.38
6132;BME280;3097;42.692;23.278;2023-06-14T11:46:35;94707.34;;;25.22;67.29
6132;BME280;3097;42.692;23.278;2023-06-14T11:49:02;94703.88;;;25.38;68.49
6132;BME280;3097;42.692;23.278;2023-06-14T11:51:35;94702.28;;;25.46;66.46
6132;BME280;3097;42.692;23.278;2023-06-14T11:54:05;94677.09;;;25.19;65.88
6132;BME280;3097;42.692;23.278;2023-06-14T11:56:31;94702.38;;;25.20;66.29
6132;BME280;3097;42.692;23.278;2023-06-14T11:58:58;94678.94;;;25.19;67.54
6132;BME280;3097;42.692;23.278;2023-06-14T12:01:23;94690.19;;;25.36;66.07
6132;BME280;3097;42.692;23.278;2023-06-14T12:03:50;94690.06;;;25.33;67.60
6132;BME280;3097;42.692;23.278;2023-06-14T12:06:15;94686.31;;;25.34;66.95
6132;BME280;3097;42.692;23.278;2023-06-14T12:08:43;94682.38;;;25.49;66.67
6132;BME280;3097;42.692;23.278;2023-06-14T12:11:11;94667.75;;;25.51;66.36
6132;BME280;3097;42.692;23.278;2023-06-14T12:13:41;94672.97;;;25.39;64.48
6132;BME280;3097;42.692;23.278;2023-06-14T12:16:11;94677.78;;;25.08;65.66
6132;BME280;3097;42.692;23.278;2023-06-14T12:18:39;94673.13;;;25.04;65.60
6132;BME280;3097;42.692;23.278;2023-06-14T12:21:08;94661.75;;;25.13;66.28
6132;BME280;3097;42.692;23.278;2023-06-14T12:23:48;94667.16;;;25.25;65.28
6132;BME280;3097;42.692;23.278;2023-06-14T12:26:18;94666.75;;;25.35;65.10
6132;BME280;3097;42.692;23.278;2023-06-14T12:28:46;94652.13;;;25.46;66.03
6132;BME280;3097;42.692;23.278;2023-06-14T12:31:12;94672.50;;;25.66;64.88
6132;BME280;3097;42.692;23.278;2023-06-14T12:33:42;94665.94;;;25.72;65.73
6132;BME280;3097;42.692;23.278;2023-06-14T12:36:08;94659.56;;;25.73;64.67
6132;BME280;3097;42.692;23.278;2023-06-14T12:38:36;94659.50;;;25.82;64.52
6132;BME280;3097;42.692;23.278;2023-06-14T12:41:02;94657.69;;;25.74;63.82
6132;BME280;3097;42.692;23.278;2023-06-14T12:43:27;94653.19;;;25.74;63.60
6132;BME280;3097;42.692;23.278;2023-06-14T12:45:56;94647.03;;;25.70;64.01
6132;BME280;3097;42.692;23.278;2023-06-14T12:48:21;94582.56;;;25.21;64.02
6132;BME280;3097;42.692;23.278;2023-06-14T12:50:47;94646.09;;;25.66;65.45
6132;BME280;3097;42.692;23.278;2023-06-14T12:53:13;94637.22;;;25.71;65.36
6132;BME280;3097;42.692;23.278;2023-06-14T12:55:38;94636.56;;;25.74;63.13
6132;BME280;3097;42.692;23.278;2023-06-14T12:58:04;94605.16;;;25.60;64.44
6132;BME280;3097;42.692;23.278;2023-06-14T13:00:29;94619.31;;;25.76;64.48
6132;BME280;3097;42.692;23.278;2023-06-14T13:02:56;94637.16;;;25.79;64.84
6132;BME280;3097;42.692;23.278;2023-06-14T13:05:22;94636.47;;;25.70;64.25
6132;BME280;3097;42.692;23.278;2023-06-14T13:07:48;94640.19;;;25.69;64.19
6132;BME280;3097;42.692;23.278;2023-06-14T13:10:13;94640.56;;;25.80;65.22
6132;BME280;3097;42.692;23.278;2023-06-14T13:12:39;94639.63;;;25.85;65.18
6132;BME280;3097;42.692;23.278;2023-06-14T13:15:05;94639.34;;;25.77;65.54
6132;BME280;3097;42.692;23.278;2023-06-14T13:17:31;94638.44;;;25.73;67.42